Time;durP1;ratioP1;P1;durP2;ratioP2;P2;SDS_P1;SDS_P2;PMS_P1;PMS_P2;Temp;Humidity;BMP_temperature;BMP_pressure;BME280_temperature;BME280_humidity;BME280_pressure;Samples;Min_cycle;Max_cycle;Signal;HPM_P1;HPM_P2
2022/03/06 00:00:51;;;;;;;12.43;11.23;;;2.60;98.20;;;;;;4924353;29;20319;-61
2022/03/06 00:03:19;;;;;;;11.73;10.63;;;2.60;98.30;;;;;;4923728;29;20204;-61
2022/03/06 00:05:48;;;;;;;11.85;10.75;;;2.60;98.60;;;;;;4926677;29;20227;-61
2022/03/06 00:08:15;;;;;;;11.82;10.73;;;2.70;98.30;;;;;;4931511;29;20637;-61
2022/03/06 00:10:43;;;;;;;11.90;10.65;;;2.60;98.40;;;;;;4931602;29;20208;-61
2022/03/06 00:13:13;;;;;;;10.32;9.43;;;2.50;98.70;;;;;;4931135;29;20306;-61
2022/03/06 00:15:43;;;;;;;11.95;10.63;;;2.50;99.00;;;;;;4931188;29;20319;-61
2022/03/06 00:18:11;;;;;;;10.52;9.52;;;2.50;99.20;;;;;;4931767;29;20223;-61
2022/03/06 00:20:41;;;;;;;10.32;9.32;;;2.40;98.90;;;;;;4931292;29;20773;-61
2022/03/06 00:23:09;;;;;;;11.55;10.45;;;2.30;99.40;;;;;;4930557;29;20215;-61
2022/03/06 00:25:37;;;;;;;11.60;10.60;;;2.20;99.40;;;;;;4931087;29;20318;-60
2022/03/06 00:28:05;;;;;;;10.45;9.45;;;2.20;99.70;;;;;;4929128;29;20311;-61
2022/03/06 00:30:33;;;;;;;12.48;10.23;;;2.20;99.90;;;;;;4926905;29;20314;-61
2022/03/06 00:33:02;;;;;;;11.18;10.15;;;2.10;99.90;;;;;;4929078;29;20207;-61
2022/03/06 00:35:30;;;;;;;11.30;10.30;;;2.10;99.90;;;;;;4930739;29;20303;-61
2022/03/06 00:37:58;;;;;;;10.55;9.55;;;2.10;99.90;;;;;;4930627;29;20207;-62
2022/03/06 00:40:26;;;;;;;10.35;9.43;;;2.00;99.90;;;;;;4930504;29;20295;-62
2022/03/06 00:42:54;;;;;;;10.20;9.30;;;1.90;99.90;;;;;;4927139;29;20283;-62
2022/03/06 00:45:22;;;;;;;12.27;9.57;;;2.00;99.90;;;;;;4924469;29;20251;-62
2022/03/06 00:47:50;;;;;;;10.75;9.85;;;1.90;99.90;;;;;;4926190;29;20216;-62
2022/03/06 00:50:19;;;;;;;11.10;9.60;;;1.90;99.90;;;;;;4923310;29;20687;-62
2022/03/06 00:52:47;;;;;;;9.57;8.68;;;2.40;99.90;;;;;;4923963;29;20283;-62
2022/03/06 00:55:15;;;;;;;9.65;8.70;;;2.50;99.90;;;;;;4921381;29;20307;-62
2022/03/06 00:57:43;;;;;;;9.40;8.60;;;2.90;99.90;;;;;;4927551;29;20287;-62
2022/03/06 01:00:12;;;;;;;9.35;8.45;;;3.30;99.90;;;;;;4920067;29;20820;-62
2022/03/06 01:02:39;;;;;;;9.52;8.73;;;3.30;99.90;;;;;;4921602;29;20229;-62
2022/03/06 01:05:08;;;;;;;10.05;9.15;;;3.30;99.90;;;;;;4923863;29;20224;-62
2022/03/06 01:07:37;;;;;;;10.60;9.60;;;3.40;99.90;;;;;;4928481;29;20303;-62
2022/03/06 01:10:06;;;;;;;10.05;9.15;;;3.30;99.90;;;;;;4923664;29;20863;-62
2022/03/06 01:12:34;;;;;;;9.25;8.38;;;3.20;99.90;;;;;;4927040;29;20207;-62
2022/03/06 01:15:02;;;;;;;9.48;8.57;;;3.30;99.90;;;;;;4921194;29;20632;-64
2022/03/06 01:17:30;;;;;;;10.00;9.10;;;3.30;99.90;;;;;;4924010;29;20667;-62
2022/03/06 01:19:58;;;;;;;9.60;8.65;;;3.40;99.90;;;;;;4922003;29;20611;-62
2022/03/06 01:22:25;;;;;;;8.27;7.55;;;3.60;99.90;;;;;;4927388;29;20306;-62
2022/03/06 01:24:55;;;;;;;9.52;8.63;;;3.70;99.90;;;;;;4920258;29;20224;-62
2022/03/06 01:27:22;;;;;;;8.95;8.15;;;3.50;99.90;;;;;;4926552;29;20347;-62
2022/03/06 01:29:50;;;;;;;9.43;8.63;;;3.40;99.90;;;;;;4924739;29;20287;-62
2022/03/06 01:32:18;;;;;;;9.35;7.90;;;3.30;99.90;;;;;;4924342;29;20232;-62
2022/03/06 01:34:46;;;;;;;9.70;8.90;;;3.40;99.90;;;;;;4928021;29;20721;-62
2022/03/06 01:37:14;;;;;;;8.23;7.53;;;3.50;99.90;;;;;;4922348;29;20279;-62
2022/03/06 01:39:42;;;;;;;8.60;7.80;;;3.60;99.90;;;;;;4920873;29;20705;-62
2022/03/06 01:42:11;;;;;;;8.70;7.80;;;3.60;99.90;;;;;;4925022;29;20662;-62
2022/03/06 01:44:39;;;;;;;8.50;7.60;;;3.50;99.30;;;;;;4924791;29;20287;-63
2022/03/06 01:47:07;;;;;;;7.70;7.10;;;3.50;99.90;;;;;;4920939;29;20280;-62
2022/03/06 01:49:35;;;;;;;8.63;7.82;;;3.60;99.90;;;;;;4923885;29;20248;-62
2022/03/06 01:52:03;;;;;;;8.00;7.28;;;3.70;99.90;;;;;;4922374;29;20288;-62
2022/03/06 01:54:31;;;;;;;8.10;7.50;;;3.70;99.90;;;;;;4921551;29;20603;-63
2022/03/06 01:56:59;;;;;;;7.97;7.28;;;3.80;99.90;;;;;;4922482;29;20307;-63
2022/03/06 01:59:28;;;;;;;8.10;6.82;;;3.80;99.90;;;;;;4923160;29;20204;-62
2022/03/06 02:01:56;;;;;;;7.57;6.93;;;3.90;99.90;;;;;;4920825;29;20220;-62
2022/03/06 02:04:24;;;;;;;7.40;6.80;;;4.00;99.90;;;;;;4920512;29;20197;-63
2022/03/06 02:06:52;;;;;;;8.50;7.68;;;4.20;99.90;;;;;;4918312;29;20299;-62
2022/03/06 02:09:20;;;;;;;8.38;7.60;;;4.40;99.90;;;;;;4919907;29;20223;-63
2022/03/06 02:12:18;;;;;;;6.90;6.30;;;4.30;99.30;;;;;;4919892;29;20283;-63
2022/03/06 02:14:37;;;;;;;7.82;7.03;;;4.20;99.90;;;;;;4920614;29;20228;-63
2022/03/06 02:17:05;;;;;;;7.50;6.80;;;4.30;99.90;;;;;;4923094;29;20310;-63
2022/03/06 02:19:50;;;;;;;7.43;6.72;;;4.10;98.20;;;;;;4922163;29;20235;-62
2022/03/06 02:22:19;;;;;;;7.00;6.50;;;3.70;99.40;;;;;;4926323;29;20291;-62
2022/03/06 02:24:47;;;;;;;7.65;7.05;;;3.60;99.30;;;;;;4919784;29;20291;-62
2022/03/06 02:27:15;;;;;;;7.35;6.75;;;3.30;99.40;;;;;;4923053;29;20283;-63
2022/03/06 02:29:44;;;;;;;7.25;6.55;;;3.40;99.90;;;;;;4923079;29;21009;-63
2022/03/06 02:32:15;;;;;;;7.60;6.90;;;3.60;99.90;;;;;;4923859;29;20287;-62
2022/03/06 02:34:45;;;;;;;7.68;6.97;;;4.00;99.90;;;;;;4927466;29;20211;-62
2022/03/06 02:37:15;;;;;;;6.45;5.95;;;4.20;99.90;;;;;;4921152;29;20246;-63
2022/03/06 02:39:44;;;;;;;7.55;6.78;;;4.50;99.90;;;;;;4922599;29;20280;-63
2022/03/06 02:42:24;;;;;;;6.50;6.00;;;4.70;99.90;;;;;;4919059;29;20280;-62
2022/03/06 02:44:52;;;;;;;7.05;6.45;;;4.80;99.90;;;;;;4925678;29;20681;-62
2022/03/06 02:47:21;;;;;;;8.63;7.00;;;4.80;99.90;;;;;;4920603;29;20394;-63
2022/03/06 02:49:49;;;;;;;6.82;6.32;;;4.70;99.90;;;;;;4921719;29;20315;-63
2022/03/06 02:52:17;;;;;;;6.75;6.15;;;4.70;99.90;;;;;;4920237;29;20200;-62
2022/03/06 02:54:46;;;;;;;7.85;7.05;;;4.70;99.90;;;;;;4921384;29;20247;-62
2022/03/06 02:57:14;;;;;;;6.38;5.82;;;4.40;99.90;;;;;;4919909;29;20290;-62
2022/03/06 02:59:42;;;;;;;7.65;6.95;;;4.50;99.60;;;;;;4928467;29;20201;-62
2022/03/06 03:02:10;;;;;;;6.97;6.38;;;4.20;98.20;;;;;;4923235;29;20287;-62
2022/03/06 03:04:39;;;;;;;6.53;5.93;;;4.10;99.90;;;;;;4921933;29;20646;-62
2022/03/06 03:07:08;;;;;;;6.95;6.38;;;4.30;99.90;;;;;;4919011;29;20201;-62
2022/03/06 03:09:36;;;;;;;6.95;6.35;;;4.40;99.90;;;;;;4921426;29;20769;-62
2022/03/06 03:12:07;;;;;;;6.35;5.85;;;4.30;99.90;;;;;;4922766;29;20311;-63
2022/03/06 03:14:35;;;;;;;7.10;6.40;;;4.40;99.90;;;;;;4920166;29;20290;-64
2022/03/06 03:17:04;;;;;;;7.18;6.50;;;4.30;99.80;;;;;;4924517;29;20311;-62
2022/03/06 03:19:32;;;;;;;6.88;6.28;;;4.10;99.90;;;;;;4923743;29;20207;-62
2022/03/06 03:22:00;;;;;;;7.55;6.82;;;3.90;99.90;;;;;;4919332;29;20681;-61
2022/03/06 03:24:29;;;;;;;5.60;5.20;;;3.70;99.50;;;;;;4918291;29;20263;-62
2022/03/06 03:26:57;;;;;;;7.32;5.50;;;3.50;99.90;;;;;;4920967;29;20299;-62
2022/03/06 03:29:26;;;;;;;7.28;6.68;;;3.40;99.90;;;;;;4922133;29;20276;-62
2022/03/06 03:31:54;;;;;;;7.53;6.93;;;3.70;99.90;;;;;;4922736;29;20287;-62
2022/03/06 03:34:21;;;;;;;6.90;6.30;;;4.00;99.90;;;;;;4923978;29;20235;-62
2022/03/06 03:36:49;;;;;;;7.85;6.57;;;4.40;99.90;;;;;;4921995;29;20240;-62
2022/03/06 03:39:17;;;;;;;7.25;6.65;;;4.60;99.90;;;;;;4919033;29;20750;-62
2022/03/06 03:41:45;;;;;;;7.47;6.75;;;4.80;99.90;;;;;;4922966;29;20295;-62
2022/03/06 03:44:13;;;;;;;7.00;6.40;;;4.80;99.30;;;;;;4926731;29;20286;-62
2022/03/06 03:46:42;;;;;;;6.40;5.90;;;4.80;99.90;;;;;;4925497;29;20232;-62
2022/03/06 03:49:11;;;;;;;5.95;5.50;;;4.80;99.90;;;;;;4928147;29;20663;-62
2022/03/06 03:51:39;;;;;;;6.38;5.80;;;4.80;99.90;;;;;;4925053;29;20582;-62
2022/03/06 03:54:06;;;;;;;7.30;6.60;;;4.80;99.90;;;;;;4923325;29;20290;-62
2022/03/06 03:56:35;;;;;;;5.82;5.20;;;4.80;99.90;;;;;;4925938;29;20306;-62
2022/03/06 03:59:03;;;;;;;6.70;6.10;;;4.80;99.90;;;;;;4926830;29;20263;-65
2022/03/06 04:01:31;;;;;;;7.88;7.10;;;4.80;99.90;;;;;;4925596;29;20758;-62
2022/03/06 04:04:00;;;;;;;6.80;6.20;;;4.80;99.90;;;;;;4930505;29;20210;-62
2022/03/06 04:06:28;;;;;;;7.20;6.03;;;4.90;99.90;;;;;;4921335;29;20232;-62
2022/03/06 04:08:56;;;;;;;6.80;6.10;;;4.90;99.90;;;;;;4926135;29;20209;-62
2022/03/06 04:11:24;;;;;;;6.85;6.25;;;4.90;99.90;;;;;;4923210;29;20723;-62
2022/03/06 04:13:51;;;;;;;7.18;6.50;;;5.00;99.90;;;;;;4925827;29;20710;-62
2022/03/06 04:16:19;;;;;;;6.97;6.47;;;4.70;99.30;;;;;;4924074;29;20307;-62
2022/03/06 04:18:47;;;;;;;7.80;7.10;;;4.40;99.90;;;;;;4923206;29;20204;-61
2022/03/06 04:21:16;;;;;;;7.50;6.88;;;4.20;99.90;;;;;;4922089;29;20291;-61
2022/03/06 04:23:45;;;;;;;7.50;6.50;;;4.30;99.90;;;;;;4925479;29;20902;-61
2022/03/06 04:26:13;;;;;;;6.65;6.15;;;4.30;99.90;;;;;;4923454;29;20307;-63
2022/03/06 04:28:41;;;;;;;6.78;6.10;;;4.30;99.90;;;;;;4923683;29;20201;-62
2022/03/06 04:31:10;;;;;;;6.10;5.60;;;4.30;99.90;;;;;;4923763;29;20315;-62
2022/03/06 04:33:38;;;;;;;7.13;6.53;;;4.40;99.90;;;;;;4924605;29;20524;-62
2022/03/06 04:36:06;;;;;;;6.88;6.32;;;4.40;99.90;;;;;;4923793;29;20322;-62
2022/03/06 04:38:35;;;;;;;7.10;6.50;;;4.40;99.90;;;;;;4921161;29;20747;-62
2022/03/06 04:41:04;;;;;;;6.82;6.25;;;4.40;99.90;;;;;;4924102;29;20220;-62
2022/03/06 04:43:32;;;;;;;7.93;7.18;;;4.40;99.90;;;;;;4925567;29;20670;-62
2022/03/06 04:46:00;;;;;;;6.18;5.68;;;4.20;98.50;;;;;;4931601;29;20315;-62
2022/03/06 04:48:28;;;;;;;6.18;5.63;;;4.20;99.90;;;;;;4940360;29;20733;-63
2022/03/06 04:50:56;;;;;;;6.13;5.63;;;4.20;99.90;;;;;;4961401;23;20990;-62
2022/03/06 04:53:24;;;;;;;7.32;5.60;;;4.30;99.90;;;;;;4914797;29;20299;-63
2022/03/06 04:55:54;;;;;;;5.82;5.30;;;4.40;99.90;;;;;;4917796;29;20296;-62
2022/03/06 04:58:21;;;;;;;5.78;5.35;;;4.40;99.90;;;;;;4930791;29;20236;-63
2022/03/06 05:00:49;;;;;;;6.22;5.72;;;4.50;99.90;;;;;;4930944;29;20303;-62
2022/03/06 05:03:17;;;;;;;6.03;5.55;;;4.50;99.90;;;;;;4916158;29;20717;-63
2022/03/06 05:05:46;;;;;;;5.85;5.35;;;4.50;99.90;;;;;;4917679;29;20584;-62
2022/03/06 05:08:13;;;;;;;6.32;5.82;;;4.10;98.40;;;;;;4917142;29;20299;-62
2022/03/06 05:10:42;;;;;;;6.47;5.68;;;4.10;99.90;;;;;;4915076;29;20317;-61
2022/03/06 05:13:11;;;;;;;6.40;5.90;;;4.00;99.90;;;;;;4916243;29;20279;-63
2022/03/06 05:15:39;;;;;;;6.82;6.25;;;4.00;99.90;;;;;;4917116;29;20228;-62
2022/03/06 05:18:07;;;;;;;6.68;5.18;;;4.00;99.90;;;;;;4918763;29;20226;-62
2022/03/06 05:20:35;;;;;;;5.18;4.78;;;3.70;98.50;;;;;;4914167;29;20296;-61
2022/03/06 05:23:03;;;;;;;6.10;5.60;;;3.60;99.90;;;;;;4913546;29;20236;-62
2022/03/06 05:25:31;;;;;;;5.75;4.97;;;3.60;99.90;;;;;;4913583;29;20292;-61
2022/03/06 05:27:59;;;;;;;6.53;5.95;;;3.80;99.90;;;;;;4913016;29;20706;-62
2022/03/06 05:30:30;;;;;;;6.43;5.93;;;3.90;99.90;;;;;;4912503;29;20220;-63
2022/03/06 05:32:58;;;;;;;5.93;5.50;;;3.70;98.80;;;;;;4913443;29;20662;-62
2022/03/06 05:35:26;;;;;;;6.78;6.18;;;3.60;97.00;;;;;;4914663;29;20295;-63
2022/03/06 05:37:54;;;;;;;6.85;6.35;;;3.10;99.90;;;;;;4912650;29;20659;-62
2022/03/06 05:40:22;;;;;;;6.40;5.80;;;3.20;99.90;;;;;;4914333;29;20223;-62
2022/03/06 05:42:50;;;;;;;6.25;5.70;;;2.90;98.40;;;;;;4913452;29;20252;-62
2022/03/06 05:45:17;;;;;;;6.90;6.20;;;3.00;99.90;;;;;;4915154;29;20605;-63
2022/03/06 05:47:47;;;;;;;7.18;6.40;;;3.00;99.90;;;;;;4916655;29;20641;-62
2022/03/06 05:50:15;;;;;;;6.25;5.75;;;3.00;99.90;;;;;;4915079;29;20706;-63
2022/03/06 05:52:43;;;;;;;5.80;5.28;;;3.00;99.90;;;;;;4912398;29;20805;-62
2022/03/06 05:55:11;;;;;;;6.75;6.00;;;3.20;99.90;;;;;;4913971;29;20827;-62
2022/03/06 05:57:38;;;;;;;6.38;5.78;;;3.30;99.90;;;;;;4912399;29;20233;-62
2022/03/06 06:00:08;;;;;;;6.00;5.50;;;3.30;99.80;;;;;;4912859;29;20749;-62
2022/03/06 06:02:37;;;;;;;6.43;5.93;;;3.10;99.90;;;;;;4913072;29;20231;-61
2022/03/06 06:05:08;;;;;;;6.70;6.10;;;3.00;98.60;;;;;;4912048;29;20212;-62
2022/03/06 06:07:36;;;;;;;10.30;6.88;;;2.90;99.10;;;;;;4912699;29;20300;-62
2022/03/06 06:10:05;;;;;;;6.70;6.20;;;2.80;99.90;;;;;;4914046;29;20240;-62
2022/03/06 06:12:33;;;;;;;7.32;6.70;;;2.70;99.90;;;;;;4915952;29;20252;-62
2022/03/06 06:15:01;;;;;;;6.50;6.00;;;2.60;98.70;;;;;;4915564;29;20228;-62
2022/03/06 06:17:29;;;;;;;6.80;6.20;;;2.50;99.90;;;;;;4915662;29;20687;-63
2022/03/06 06:19:58;;;;;;;6.75;6.10;;;2.60;99.80;;;;;;4915278;29;20300;-63
2022/03/06 06:22:28;;;;;;;6.22;5.63;;;2.50;99.20;;;;;;4915233;29;20762;-62
2022/03/06 06:24:56;;;;;;;6.43;5.82;;;2.40;99.90;;;;;;4916118;29;20247;-62
2022/03/06 06:27:24;;;;;;;6.57;5.97;;;2.30;99.50;;;;;;4915891;29;20209;-62
2022/03/06 06:29:52;;;;;;;6.00;5.60;;;2.60;99.90;;;;;;4915828;29;20296;-62
2022/03/06 06:32:20;;;;;;;6.05;5.55;;;3.00;99.90;;;;;;4914421;29;20303;-61
2022/03/06 06:34:48;;;;;;;6.90;6.40;;;3.20;99.90;;;;;;4916011;29;20205;-62
2022/03/06 06:37:16;;;;;;;7.03;6.32;;;3.50;99.90;;;;;;4914445;29;20244;-61
2022/03/06 06:39:45;;;;;;;6.30;5.80;;;3.80;99.90;;;;;;4915890;29;20260;-61
2022/03/06 06:42:13;;;;;;;6.50;5.90;;;4.10;99.90;;;;;;4915495;29;20248;-61
2022/03/06 06:44:41;;;;;;;6.75;6.20;;;4.30;99.90;;;;;;4915462;29;20722;-61
2022/03/06 06:47:13;;;;;;;6.18;5.68;;;4.40;99.90;;;;;;4915238;29;20244;-60
2022/03/06 06:49:41;;;;;;;7.00;6.40;;;4.50;99.90;;;;;;4915184;29;20257;-61
2022/03/06 06:52:09;;;;;;;6.95;6.35;;;4.70;99.90;;;;;;4914206;29;20263;-61
2022/03/06 06:54:37;;;;;;;7.97;7.25;;;4.70;97.80;;;;;;4915386;29;20292;-61
2022/03/06 06:57:06;;;;;;;6.95;6.30;;;4.50;99.90;;;;;;4915143;29;20288;-61
2022/03/06 06:59:34;;;;;;;7.55;6.38;;;4.60;99.90;;;;;;4914686;29;20662;-61
2022/03/06 07:02:02;;;;;;;7.05;6.47;;;4.70;99.90;;;;;;4914406;29;20328;-62
2022/03/06 07:04:30;;;;;;;6.45;5.93;;;4.70;99.90;;;;;;4915703;29;20215;-61
2022/03/06 07:06:58;;;;;;;7.50;6.90;;;4.70;99.90;;;;;;4914762;29;20207;-62
2022/03/06 07:09:26;;;;;;;7.82;7.03;;;4.70;99.90;;;;;;4914917;29;20260;-62
2022/03/06 07:11:54;;;;;;;6.57;5.95;;;4.80;99.90;;;;;;4914376;29;20263;-62
2022/03/06 07:14:23;;;;;;;7.00;6.45;;;5.00;99.90;;;;;;4914379;29;20232;-62
2022/03/06 07:16:51;;;;;;;8.02;7.30;;;5.10;99.90;;;;;;4914263;29;20291;-62
2022/03/06 07:19:19;;;;;;;7.18;6.57;;;5.20;99.90;;;;;;4914627;29;20626;-61
2022/03/06 07:21:46;;;;;;;7.38;6.78;;;5.10;99.20;;;;;;4913400;29;20251;-61
2022/03/06 07:24:14;;;;;;;7.10;6.50;;;5.10;99.90;;;;;;4907337;29;20663;-61
2022/03/06 07:26:42;;;;;;;7.90;7.18;;;5.00;99.90;;;;;;4901841;29;20308;-61
2022/03/06 07:29:10;;;;;;;6.60;6.10;;;4.80;99.40;;;;;;4905044;29;20228;-61
2022/03/06 07:31:40;;;;;;;7.18;6.57;;;4.80;99.30;;;;;;4899385;29;20257;-61
2022/03/06 07:34:08;;;;;;;6.88;6.18;;;4.90;98.60;;;;;;4902314;29;20229;-62
2022/03/06 07:36:36;;;;;;;6.90;6.40;;;4.80;99.90;;;;;;4901245;29;20280;-62
2022/03/06 07:39:04;;;;;;;8.18;7.50;;;5.00;99.90;;;;;;4903777;29;20690;-62
2022/03/06 07:41:32;;;;;;;7.47;6.82;;;5.00;99.50;;;;;;4905583;29;20255;-61
2022/03/06 07:43:59;;;;;;;8.43;7.72;;;5.00;99.40;;;;;;4905395;29;20642;-62
2022/03/06 07:46:28;;;;;;;8.85;8.05;;;4.90;99.80;;;;;;4903844;29;20252;-61
2022/03/06 07:48:57;;;;;;;8.23;7.57;;;4.80;98.00;;;;;;4911402;29;20581;-61
2022/03/06 07:51:25;;;;;;;8.02;7.32;;;4.80;96.90;;;;;;4901580;29;20267;-61
2022/03/06 07:53:52;;;;;;;8.70;8.00;;;4.70;96.70;;;;;;4899106;29;20221;-61
2022/03/06 07:56:20;;;;;;;8.88;7.93;;;4.60;96.80;;;;;;4904848;29;20239;-62
2022/03/06 07:58:48;;;;;;;9.10;8.30;;;4.70;96.70;;;;;;4903543;29;20646;-62
2022/03/06 08:01:16;;;;;;;8.65;7.93;;;4.60;96.90;;;;;;4905468;29;20316;-63
2022/03/06 08:03:44;;;;;;;8.82;8.00;;;4.70;96.40;;;;;;4907988;29;20208;-65
2022/03/06 08:06:13;;;;;;;8.82;8.02;;;4.80;96.20;;;;;;4904709;29;20390;-63
2022/03/06 08:08:42;;;;;;;9.63;8.73;;;4.80;96.60;;;;;;4907988;29;20687;-62
2022/03/06 08:11:10;;;;;;;8.70;8.00;;;4.80;95.80;;;;;;4907339;29;20661;-63
2022/03/06 08:13:38;;;;;;;9.32;8.50;;;4.90;96.20;;;;;;4908911;29;20778;-63
2022/03/06 08:16:06;;;;;;;8.75;8.00;;;5.00;96.50;;;;;;4908351;29;21129;-64
2022/03/06 08:18:34;;;;;;;10.88;9.35;;;5.00;96.20;;;;;;4909179;29;20244;-61
2022/03/06 08:21:02;;;;;;;10.43;9.52;;;5.10;95.80;;;;;;4908968;29;20781;-63
2022/03/06 08:23:31;;;;;;;10.52;9.40;;;5.20;95.50;;;;;;4909155;29;20292;-63
2022/03/06 08:25:59;;;;;;;9.55;8.85;;;5.30;96.10;;;;;;4909275;29;20201;-62
2022/03/06 08:28:27;;;;;;;10.30;9.38;;;5.30;95.60;;;;;;4910530;29;20243;-62
2022/03/06 08:30:54;;;;;;;10.55;9.55;;;5.40;95.90;;;;;;4912584;29;20748;-62
2022/03/06 08:33:22;;;;;;;10.90;9.25;;;5.60;95.70;;;;;;4912489;29;20228;-63
2022/03/06 08:35:51;;;;;;;10.73;9.73;;;5.70;95.80;;;;;;4911933;29;20660;-62
2022/03/06 08:38:19;;;;;;;10.80;9.50;;;5.80;95.00;;;;;;4908253;29;20279;-63
2022/03/06 08:40:48;;;;;;;11.63;10.52;;;5.90;95.50;;;;;;4911375;29;20628;-63
2022/03/06 08:43:16;;;;;;;10.18;9.27;;;6.00;94.50;;;;;;4911208;29;20784;-63
2022/03/06 08:45:44;;;;;;;11.88;10.60;;;6.10;94.30;;;;;;4912465;29;20213;-63
2022/03/06 08:48:12;;;;;;;11.05;10.05;;;6.20;94.10;;;;;;4912275;29;20201;-62
2022/03/06 08:50:40;;;;;;;10.77;9.77;;;6.50;94.00;;;;;;4911730;29;20243;-62
2022/03/06 08:53:08;;;;;;;12.23;10.63;;;6.60;94.40;;;;;;4911871;29;20236;-63
2022/03/06 08:55:36;;;;;;;10.70;9.70;;;6.90;93.60;;;;;;4912345;29;20295;-63
2022/03/06 08:58:05;;;;;;;10.40;9.40;;;7.10;95.70;;;;;;4912041;29;20292;-63
2022/03/06 09:00:33;;;;;;;9.82;8.93;;;7.30;92.90;;;;;;4912225;29;20770;-63
2022/03/06 09:03:01;;;;;;;11.02;9.65;;;7.50;91.50;;;;;;4911388;29;20320;-63
2022/03/06 09:05:29;;;;;;;11.15;10.13;;;7.50;91.00;;;;;;4912149;29;20218;-63
2022/03/06 09:07:57;;;;;;;10.45;9.45;;;7.70;91.60;;;;;;4911619;29;20649;-64
2022/03/06 09:10:25;;;;;;;10.00;9.10;;;7.70;90.30;;;;;;4912260;29;20213;-63
2022/03/06 09:12:53;;;;;;;10.45;9.45;;;7.70;89.00;;;;;;4911841;29;20304;-63
2022/03/06 09:15:23;;;;;;;10.80;8.88;;;7.90;89.50;;;;;;4911611;29;20240;-63
2022/03/06 09:17:53;;;;;;;10.48;9.55;;;8.10;90.30;;;;;;4912055;29;20208;-63
2022/03/06 09:20:21;;;;;;;9.80;8.90;;;8.50;88.40;;;;;;4911726;29;20337;-63
2022/03/06 09:22:49;;;;;;;8.82;8.02;;;8.70;87.10;;;;;;4911614;29;20237;-63
2022/03/06 09:25:17;;;;;;;8.95;8.25;;;8.90;84.80;;;;;;4911606;29;20300;-63
2022/03/06 09:27:45;;;;;;;9.20;8.50;;;8.80;83.00;;;;;;4911085;29;20316;-63
2022/03/06 09:30:14;;;;;;;10.27;9.38;;;8.70;82.60;;;;;;4911474;29;20307;-63
2022/03/06 09:32:43;;;;;;;11.05;7.63;;;8.60;83.10;;;;;;4911497;29;20225;-63
2022/03/06 09:35:11;;;;;;;9.80;8.40;;;8.50;84.30;;;;;;4914977;29;20758;-63
2022/03/06 09:37:43;;;;;;;9.40;8.23;;;8.60;82.70;;;;;;4911604;29;20246;-63
2022/03/06 09:40:12;;;;;;;8.88;8.05;;;8.60;82.10;;;;;;4910858;29;20228;-63
2022/03/06 09:42:40;;;;;;;10.85;8.43;;;8.60;82.40;;;;;;4911379;29;20244;-63
2022/03/06 09:45:10;;;;;;;8.10;7.40;;;8.80;81.00;;;;;;4909181;29;20229;-63
2022/03/06 09:47:40;;;;;;;9.15;8.35;;;8.90;81.20;;;;;;4911273;29;20308;-63
2022/03/06 09:50:11;;;;;;;8.75;7.95;;;9.00;80.00;;;;;;4911412;29;20245;-63
2022/03/06 09:52:39;;;;;;;9.77;8.40;;;9.10;79.90;;;;;;4910785;29;20247;-63
2022/03/06 09:55:09;;;;;;;8.25;7.55;;;9.30;80.50;;;;;;4910777;29;20303;-63
2022/03/06 09:57:37;;;;;;;8.20;7.50;;;9.50;78.40;;;;;;4911307;29;20247;-61
2022/03/06 10:00:07;;;;;;;7.35;6.72;;;9.40;75.70;;;;;;4911322;29;20279;-63
2022/03/06 10:02:54;;;;;;;7.55;6.95;;;9.30;73.70;;;;;;4910849;29;20267;-62
2022/03/06 10:05:35;;;;;;;7.80;7.00;;;8.90;74.40;;;;;;4910804;29;20686;-61
2022/03/06 10:08:23;;;;;;;8.90;8.15;;;9.00;76.70;;;;;;4911420;29;20264;-61
2022/03/06 10:10:55;;;;;;;7.70;7.00;;;9.50;75.00;;;;;;4911242;29;20240;-62
2022/03/06 10:13:26;;;;;;;7.13;6.53;;;9.80;74.30;;;;;;4910838;29;20323;-61
2022/03/06 10:15:58;;;;;;;5.45;5.00;;;9.90;76.20;;;;;;4904788;29;20212;-61
2022/03/06 10:18:29;;;;;;;7.68;6.55;;;10.50;70.50;;;;;;4906723;29;20224;-61
2022/03/06 10:21:03;;;;;;;7.90;7.15;;;10.30;70.50;;;;;;4910580;29;20361;-61
2022/03/06 10:23:31;;;;;;;5.70;5.30;;;10.40;71.10;;;;;;4910538;29;20587;-62
2022/03/06 10:26:03;;;;;;;7.22;6.63;;;10.20;68.10;;;;;;4910664;29;20213;-63
2022/03/06 10:28:31;;;;;;;6.10;5.60;;;10.00;67.80;;;;;;4911026;29;20291;-61
2022/03/06 10:31:09;;;;;;;6.85;6.18;;;9.90;68.90;;;;;;4910533;29;20331;-62
2022/03/06 10:33:36;;;;;;;7.07;6.45;;;10.00;73.00;;;;;;4910368;29;20236;-61
2022/03/06 10:36:08;;;;;;;7.82;7.13;;;10.10;69.70;;;;;;4910831;29;20241;-61
2022/03/06 10:38:37;;;;;;;7.13;6.53;;;10.40;69.90;;;;;;4913103;29;20214;-64
2022/03/06 10:41:13;;;;;;;6.57;5.30;;;10.60;68.70;;;;;;4911902;29;20239;-62
2022/03/06 10:43:42;;;;;;;5.60;5.10;;;11.10;67.00;;;;;;4910316;29;20665;-62
2022/03/06 10:46:11;;;;;;;5.40;4.90;;;11.30;65.80;;;;;;4909016;29;20247;-61
2022/03/06 10:48:40;;;;;;;5.95;5.45;;;11.30;65.70;;;;;;4907744;29;20212;-61
2022/03/06 10:51:12;;;;;;;6.10;5.60;;;11.60;66.20;;;;;;4909583;29;20268;-62
2022/03/06 10:53:41;;;;;;;6.60;5.93;;;11.60;64.40;;;;;;4911877;29;20352;-62
2022/03/06 10:56:11;;;;;;;5.88;5.38;;;11.40;65.30;;;;;;4904179;29;20576;-63
2022/03/06 10:58:40;;;;;;;5.93;5.40;;;11.40;64.10;;;;;;4904656;29;20216;-62
2022/03/06 11:01:26;;;;;;;6.53;5.75;;;11.40;65.60;;;;;;4910407;29;20597;-62
2022/03/06 11:03:55;;;;;;;6.10;5.60;;;11.70;66.50;;;;;;4909624;29;20291;-61
2022/03/06 11:06:24;;;;;;;6.82;6.22;;;12.00;63.70;;;;;;4905643;29;20235;-61
2022/03/06 11:08:52;;;;;;;6.38;5.88;;;11.90;64.00;;;;;;4909861;29;20292;-62
2022/03/06 11:11:21;;;;;;;6.53;5.93;;;12.20;69.60;;;;;;4909987;29;20283;-62
2022/03/06 11:13:49;;;;;;;6.40;5.90;;;12.30;64.30;;;;;;4909578;29;20307;-63
2022/03/06 11:16:18;;;;;;;7.45;6.75;;;12.10;65.60;;;;;;4908892;29;20291;-62
2022/03/06 11:18:46;;;;;;;6.85;6.35;;;11.60;64.30;;;;;;4914630;29;20243;-62
2022/03/06 11:21:15;;;;;;;7.45;6.07;;;11.90;64.30;;;;;;4909029;29;20228;-62
2022/03/06 11:23:46;;;;;;;6.22;5.72;;;12.10;64.20;;;;;;4909618;29;20242;-62
2022/03/06 11:26:31;;;;;;;7.43;6.82;;;12.00;64.40;;;;;;4908767;29;20244;-62
2022/03/06 11:29:26;;;;;;;7.18;6.57;;;11.50;65.30;;;;;;4906616;29;20214;-62
2022/03/06 11:31:55;;;;;;;7.20;6.30;;;10.60;65.20;;;;;;4906933;29;20259;-62
2022/03/06 11:34:24;;;;;;;6.85;6.35;;;10.50;66.80;;;;;;4909271;29;20937;-62
2022/03/06 11:36:54;;;;;;;6.50;5.90;;;10.80;67.70;;;;;;4909118;29;20620;-62
2022/03/06 11:39:46;;;;;;;6.82;6.18;;;11.30;67.10;;;;;;4908717;29;20232;-62
2022/03/06 11:42:47;;;;;;;7.28;6.68;;;11.10;64.90;;;;;;4903739;29;20638;-64
2022/03/06 11:45:49;;;;;;;7.38;6.80;;;10.90;64.60;;;;;;4908352;29;20283;-62
2022/03/06 11:48:26;;;;;;;7.57;6.88;;;11.30;63.60;;;;;;4907366;29;20295;-62
2022/03/06 11:51:17;;;;;;;7.07;6.40;;;11.20;64.00;;;;;;4908660;29;20263;-62
2022/03/06 11:53:53;;;;;;;7.53;6.93;;;11.30;66.00;;;;;;4904345;29;20970;-62
2022/03/06 11:56:46;;;;;;;6.20;5.70;;;11.50;64.20;;;;;;4909271;29;20291;-62
2022/03/06 11:59:40;;;;;;;6.32;5.82;;;11.80;64.80;;;;;;4909259;29;20216;-63
2022/03/06 12:02:11;;;;;;;6.25;5.68;;;12.30;63.00;;;;;;4895611;29;20240;-62
2022/03/06 12:04:44;;;;;;;6.03;5.57;;;12.00;63.30;;;;;;4913073;29;20236;-62
2022/03/06 12:07:14;;;;;;;5.93;5.43;;;11.60;63.80;;;;;;4911385;29;20211;-62
2022/03/06 12:09:44;;;;;;;5.95;5.45;;;11.50;64.20;;;;;;4911909;29;20291;-62
2022/03/06 12:12:15;;;;;;;5.82;5.32;;;11.70;63.80;;;;;;4912566;29;20247;-62
2022/03/06 12:14:45;;;;;;;6.78;6.18;;;11.40;64.10;;;;;;4913044;29;20307;-62
2022/03/06 12:17:37;;;;;;;5.38;4.97;;;11.70;64.70;;;;;;4912778;29;20671;-62
2022/03/06 12:20:28;;;;;;;6.10;5.60;;;12.00;63.70;;;;;;4912888;29;20220;-63
2022/03/06 12:23:06;;;;;;;5.75;5.30;;;12.40;63.60;;;;;;4911423;29;20769;-63
2022/03/06 12:25:36;;;;;;;6.22;5.72;;;12.70;62.90;;;;;;4913129;29;20315;-62
2022/03/06 12:28:27;;;;;;;6.38;5.82;;;12.40;62.10;;;;;;4906614;29;20209;-62
2022/03/06 12:30:56;;;;;;;6.60;6.05;;;12.50;62.20;;;;;;4912567;29;20296;-62
2022/03/06 12:33:29;;;;;;;6.28;5.68;;;13.30;61.70;;;;;;4912217;29;20217;-63
2022/03/06 12:36:13;;;;;;;6.45;5.85;;;13.40;61.10;;;;;;4912394;29;20279;-62
2022/03/06 12:38:41;;;;;;;7.47;6.72;;;12.60;61.00;;;;;;4912393;29;20682;-62
2022/03/06 12:41:10;;;;;;;6.88;6.28;;;12.30;63.40;;;;;;4912342;29;20252;-62
2022/03/06 12:43:46;;;;;;;7.00;6.40;;;12.10;62.50;;;;;;4912737;29;20308;-62
2022/03/06 12:46:14;;;;;;;6.82;6.13;;;11.70;62.60;;;;;;4906442;29;20283;-61
2022/03/06 12:48:42;;;;;;;6.97;6.32;;;11.40;63.20;;;;;;4913700;29;20846;-63
2022/03/06 12:51:10;;;;;;;5.57;5.18;;;11.40;63.50;;;;;;4911888;29;20256;-64
2022/03/06 12:53:45;;;;;;;5.90;5.40;;;11.80;64.10;;;;;;4912262;29;20844;-64
2022/03/06 12:56:12;;;;;;;6.05;5.50;;;12.20;61.70;;;;;;4912399;29;20989;-61
2022/03/06 12:58:42;;;;;;;5.50;5.10;;;12.30;61.30;;;;;;4912546;29;20348;-61
2022/03/06 13:01:11;;;;;;;6.57;5.95;;;12.40;61.80;;;;;;4910667;29;20299;-62
2022/03/06 13:03:39;;;;;;;6.50;5.90;;;12.50;61.60;;;;;;4911631;29;20227;-61
2022/03/06 13:06:15;;;;;;;5.95;5.45;;;12.30;62.00;;;;;;4912254;29;20284;-61